createdAt,value
2019-01-17T00:00:38.913Z,99481.72
2019-01-17T00:03:10.346Z,99490.78
2019-01-17T00:05:44.673Z,99489.61
2019-01-17T00:08:33.990Z,99485.06
2019-01-17T00:11:10.817Z,99479.70
2019-01-17T00:13:53.453Z,99480.88
2019-01-17T00:16:34.679Z,99471.80
2019-01-17T00:19:20.993Z,99476.84
2019-01-17T00:22:07.844Z,99467.09
2019-01-17T00:24:48.334Z,99468.44
2019-01-17T00:27:26.679Z,99461.05
2019-01-17T00:30:06.981Z,99459.20
2019-01-17T00:32:46.993Z,99471.12
2019-01-17T00:35:16.334Z,99458.36
2019-01-17T00:37:47.462Z,99453.66
2019-01-17T00:40:35.255Z,99454.98
2019-01-17T00:43:06.812Z,99441.88
2019-01-17T00:45:43.988Z,99451.31
2019-01-17T00:48:33.833Z,99445.42
2019-01-17T00:51:07.980Z,99447.27
2019-01-17T00:53:39.129Z,99435.66
2019-01-17T00:56:13.016Z,99444.57
2019-01-17T00:59:02.014Z,99437.50
2019-01-17T01:01:45.082Z,99439.72
2019-01-17T01:04:26.872Z,99421.91
2019-01-17T01:07:01.908Z,99428.45
2019-01-17T01:09:54.389Z,99425.11
2019-01-17T01:12:33.030Z,99424.59
2019-01-17T01:15:05.831Z,99417.03
2019-01-17T01:17:39.614Z,99420.20
2019-01-17T01:20:28.777Z,99418.38
2019-01-17T01:23:02.420Z,99417.68
2019-01-17T01:25:37.152Z,99414.36
2019-01-17T01:28:23.292Z,99418.05
2019-01-17T01:30:57.552Z,99418.89
2019-01-17T01:33:37.514Z,99421.05
2019-01-17T01:36:24.874Z,99414.84
2019-01-17T01:38:56.022Z,99418.34
2019-01-17T01:41:29.631Z,99407.80
2019-01-17T01:44:06.642Z,99420.40
2019-01-17T01:46:49.394Z,99417.70
2019-01-17T01:49:29.284Z,99409.83
2019-01-17T01:52:06.106Z,99412.67
2019-01-17T01:54:35.643Z,99417.67
2019-01-17T01:57:05.203Z,99406.10
2019-01-17T01:59:35.401Z,99405.42
2019-01-17T02:02:05.056Z,99411.64
2019-01-17T02:04:34.538Z,99416.67
2019-01-17T02:07:04.101Z,99413.30
2019-01-17T02:09:34.004Z,99411.94
2019-01-17T02:12:03.689Z,99415.48
2019-01-17T02:14:33.368Z,99409.59
2019-01-17T02:17:03.335Z,99413.63
2019-01-17T02:19:32.921Z,99409.26
2019-01-17T02:22:02.461Z,99407.93
2019-01-17T02:24:31.968Z,99408.28
2019-01-17T02:27:01.516Z,99411.97
2019-01-17T02:29:31.044Z,99399.03
2019-01-17T02:32:00.763Z,99410.45
2019-01-17T02:34:30.272Z,99415.66
2019-01-17T02:36:59.826Z,99425.27
2019-01-17T02:39:29.396Z,99441.21
2019-01-17T02:41:58.906Z,99442.51
2019-01-17T02:44:28.428Z,99448.55
2019-01-17T02:46:58.062Z,99446.86
2019-01-17T02:49:27.537Z,99455.62
2019-01-17T02:51:57.054Z,99453.94
2019-01-17T02:54:26.693Z,99444.52
2019-01-17T02:56:56.178Z,99454.25
2019-01-17T02:59:25.662Z,99459.33
2019-01-17T03:01:55.182Z,99452.56
2019-01-17T03:04:24.657Z,99450.71
2019-01-17T03:06:54.143Z,99432.72
2019-01-17T03:09:24.343Z,99433.10
2019-01-17T03:11:54.229Z,99422.33
2019-01-17T03:14:23.920Z,99426.71
2019-01-17T03:16:54.192Z,99432.55
2019-01-17T03:19:23.670Z,99437.11
2019-01-17T03:21:53.225Z,99436.61
2019-01-17T03:24:23.613Z,99432.92
2019-01-17T03:26:53.614Z,99433.45
2019-01-17T03:29:23.166Z,99427.09
2019-01-17T03:31:52.676Z,99433.46
2019-01-17T03:34:22.159Z,99437.11
2019-01-17T03:36:51.655Z,99432.59
2019-01-17T03:39:21.216Z,99427.50
2019-01-17T03:41:51.050Z,99433.44
2019-01-17T03:44:20.517Z,99427.02
2019-01-17T03:46:50.043Z,99432.08
2019-01-17T03:49:19.541Z,99436.80
2019-01-17T03:51:49.110Z,99441.50
2019-01-17T03:54:18.658Z,99430.07
2019-01-17T03:56:48.140Z,99427.34
2019-01-17T03:59:17.660Z,99428.73
2019-01-17T04:01:47.220Z,99436.48
2019-01-17T04:04:16.678Z,99441.54
2019-01-17T04:06:46.227Z,99442.84
2019-01-17T04:09:15.732Z,99448.21
2019-01-17T04:11:45.209Z,99447.33
2019-01-17T04:14:14.695Z,99453.40
2019-01-17T04:16:44.201Z,99442.52
2019-01-17T04:19:13.704Z,99444.69
2019-01-17T04:21:43.192Z,99433.78
2019-01-17T04:24:12.941Z,99439.15
2019-01-17T04:26:42.400Z,99444.58
2019-01-17T04:29:12.029Z,99458.84
2019-01-17T04:31:41.517Z,99447.42
2019-01-17T04:34:11.010Z,99453.97
2019-01-17T04:36:40.518Z,99451.95
2019-01-17T04:39:10.014Z,99453.44
2019-01-17T04:41:39.502Z,99457.66
2019-01-17T04:44:08.975Z,99463.52
2019-01-17T04:46:38.649Z,99463.36
2019-01-17T04:49:08.193Z,99460.64
2019-01-17T04:51:37.725Z,99459.67
2019-01-17T04:54:07.230Z,99471.58
2019-01-17T04:56:36.729Z,99463.69
2019-01-17T04:59:06.188Z,99467.36
2019-01-17T05:01:36.003Z,99468.75
2019-01-17T05:04:05.591Z,99460.67
2019-01-17T05:06:35.086Z,99470.73
2019-01-17T05:09:07.463Z,99478.81
2019-01-17T05:11:36.973Z,99479.86
2019-01-17T05:14:06.539Z,99470.77
2019-01-17T05:16:36.081Z,99483.05
2019-01-17T05:19:05.633Z,99479.52
2019-01-17T05:21:35.089Z,99484.06
2019-01-17T05:24:05.315Z,99488.94
2019-01-17T05:26:34.803Z,99497.49
2019-01-17T05:29:07.021Z,99485.22
2019-01-17T05:31:37.407Z,99488.07
2019-01-17T05:34:06.889Z,99484.73
2019-01-17T05:36:36.377Z,99483.73
2019-01-17T05:39:08.035Z,99496.16
2019-01-17T05:41:37.545Z,99480.53
2019-01-17T05:44:07.020Z,99488.27
2019-01-17T05:46:36.525Z,99488.27
2019-01-17T05:49:06.071Z,99487.93
2019-01-17T05:51:35.539Z,99490.78
2019-01-17T05:54:05.178Z,99482.54
2019-01-17T05:56:34.684Z,99486.23
2019-01-17T05:59:04.154Z,99488.94
2019-01-17T06:01:33.646Z,99493.97
2019-01-17T06:04:03.142Z,99490.44
2019-01-17T06:06:33.205Z,99496.15
2019-01-17T06:09:04.555Z,99491.28
2019-01-17T06:11:34.039Z,99491.75
2019-01-17T06:14:03.585Z,99496.61
2019-01-17T06:16:33.557Z,99505.55
2019-01-17T06:19:03.021Z,99500.82
2019-01-17T06:21:32.525Z,99506.05
2019-01-17T06:24:02.039Z,99507.42
2019-01-17T06:26:32.171Z,99509.44
2019-01-17T06:29:01.760Z,99500.36
2019-01-17T06:31:31.301Z,99501.36
2019-01-17T06:34:00.768Z,99500.70
2019-01-17T06:36:30.234Z,99501.20
2019-01-17T06:38:59.860Z,99501.02
2019-01-17T06:41:29.321Z,99500.82
2019-01-17T06:43:58.819Z,99505.72
2019-01-17T06:46:28.343Z,99505.90
2019-01-17T06:48:58.395Z,99498.51
2019-01-17T06:51:28.363Z,99492.97
2019-01-17T06:53:57.919Z,99492.28
2019-01-17T06:56:27.395Z,99486.74
2019-01-17T06:58:56.874Z,99487.92
2019-01-17T07:01:26.732Z,99493.97
2019-01-17T07:03:56.197Z,99485.06
2019-01-17T07:06:25.799Z,99491.63
2019-01-17T07:08:55.684Z,99499.02
2019-01-17T07:11:25.171Z,99495.16
2019-01-17T07:13:54.652Z,99507.76
2019-01-17T07:16:24.179Z,99507.56
2019-01-17T07:18:53.685Z,99500.69
2019-01-17T07:21:23.153Z,99503.38
2019-01-17T07:23:52.985Z,99501.38
2019-01-17T07:26:22.533Z,99500.20
2019-01-17T07:28:52.021Z,99507.42
2019-01-17T07:31:21.583Z,99509.10
2019-01-17T07:33:51.042Z,99508.42
2019-01-17T07:36:20.529Z,99507.25
2019-01-17T07:38:50.052Z,99520.69
2019-01-17T07:41:19.495Z,99511.79
2019-01-17T07:43:48.983Z,99513.81
2019-01-17T07:46:18.828Z,99506.08
2019-01-17T07:48:48.300Z,99519.18
2019-01-17T07:51:17.962Z,99526.73
2019-01-17T07:53:47.493Z,99522.21
2019-01-17T07:56:17.020Z,99523.55
2019-01-17T07:58:46.473Z,99522.87
2019-01-17T08:01:15.979Z,99526.41
2019-01-17T08:03:45.576Z,99523.89
2019-01-17T08:06:15.143Z,99531.95
2019-01-17T08:08:45.031Z,99533.30
2019-01-17T08:11:14.489Z,99531.28
2019-01-17T08:13:44.066Z,99532.44
2019-01-17T08:16:13.606Z,99533.91
2019-01-17T08:18:43.100Z,99539.00
2019-01-17T08:21:12.586Z,99533.30
2019-01-17T08:23:42.086Z,99541.20
2019-01-17T08:26:11.592Z,99540.66
2019-01-17T08:28:41.147Z,99547.23
2019-01-17T08:31:10.950Z,99540.36
2019-01-17T08:33:40.420Z,99540.36
2019-01-17T08:36:09.966Z,99545.57
2019-01-17T08:38:39.505Z,99541.53
2019-01-17T08:41:08.974Z,99558.82
2019-01-17T08:43:38.494Z,99551.92
2019-01-17T08:46:07.979Z,99554.81
2019-01-17T08:48:37.484Z,99558.17
2019-01-17T08:51:07.807Z,99551.09
2019-01-17T08:53:38.735Z,99552.80
2019-01-17T08:56:08.322Z,99558.02
2019-01-17T08:58:37.815Z,99555.31
2019-01-17T09:01:08.984Z,99558.51
2019-01-17T09:03:38.494Z,99560.48
2019-01-17T09:06:08.014Z,99560.28
2019-01-17T09:08:37.552Z,99562.18
2019-01-17T09:11:07.518Z,99555.66
2019-01-17T09:13:36.993Z,99572.27
2019-01-17T09:16:06.803Z,99571.30
2019-01-17T09:18:36.306Z,99566.58
2019-01-17T09:21:05.785Z,99560.85
2019-01-17T09:23:35.260Z,99564.22
2019-01-17T09:26:07.583Z,99556.16
2019-01-17T09:28:35.968Z,99553.64
2019-01-17T09:31:05.638Z,99552.30
2019-01-17T09:33:35.137Z,99558.85
2019-01-17T09:36:04.691Z,99552.11
2019-01-17T09:38:34.242Z,99549.75
2019-01-17T09:41:03.729Z,99556.14
2019-01-17T09:43:33.199Z,99544.99
2019-01-17T09:46:02.705Z,99552.70
2019-01-17T09:48:32.210Z,99546.66
2019-01-17T09:51:01.744Z,99553.98
2019-01-17T09:53:31.268Z,99544.61
2019-01-17T09:56:00.769Z,99546.88
2019-01-17T09:58:30.266Z,99550.25
2019-01-17T10:00:59.805Z,99532.91
2019-01-17T10:03:29.303Z,99548.05
2019-01-17T10:05:58.771Z,99546.37
2019-01-17T10:08:28.282Z,99537.92
2019-01-17T10:10:57.753Z,99541.09
2019-01-17T10:13:31.985Z,99537.56
2019-01-17T10:16:03.734Z,99540.43
2019-01-17T10:19:09.431Z,99542.41
2019-01-17T10:21:43.659Z,99546.66
2019-01-17T10:24:23.061Z,99531.88
2019-01-17T10:27:22.579Z,99533.73
2019-01-17T10:30:22.645Z,99529.89
2019-01-17T10:33:20.786Z,99529.33
2019-01-17T10:36:23.608Z,99525.16
2019-01-17T10:39:16.916Z,99529.41
2019-01-17T10:41:56.652Z,99522.97
2019-01-17T10:44:33.549Z,99526.50
2019-01-17T10:47:46.684Z,99519.03
2019-01-17T10:50:36.140Z,99521.72
2019-01-17T10:53:22.589Z,99505.65
2019-01-17T10:56:20.557Z,99504.61
2019-01-17T10:59:03.557Z,99505.25
2019-01-17T11:01:43.609Z,99501.92
2019-01-17T11:04:44.573Z,99504.81
2019-01-17T11:07:49.726Z,99501.55
2019-01-17T11:10:43.037Z,99504.00
2019-01-17T11:13:45.928Z,99494.34
2019-01-17T11:17:00.385Z,99498.21
2019-01-17T11:19:42.583Z,99505.77
2019-01-17T11:22:31.748Z,99510.67
2019-01-17T11:25:22.444Z,99503.39
2019-01-17T11:28:08.437Z,99503.58
2019-01-17T11:31:33.245Z,99502.36
2019-01-17T11:37:46.427Z,99494.22
2019-01-17T11:40:45.549Z,99490.43
2019-01-17T11:43:57.273Z,99487.53
2019-01-17T11:46:31.448Z,99489.16
2019-01-17T11:49:14.615Z,99500.75
2019-01-17T11:52:00.533Z,99492.80
2019-01-17T11:54:43.774Z,99492.53
2019-01-17T11:57:33.158Z,99484.98
2019-01-17T12:00:36.015Z,99490.91
2019-01-17T12:03:22.160Z,99481.93
2019-01-17T12:05:51.693Z,99483.61
2019-01-17T12:08:21.160Z,99480.63
2019-01-17T12:10:50.641Z,99478.94
2019-01-17T12:13:20.121Z,99478.09
2019-01-17T12:15:49.583Z,99471.75
2019-01-17T12:18:19.068Z,99467.37
2019-01-17T12:20:49.040Z,99465.52
2019-01-17T12:23:18.555Z,99465.56
2019-01-17T12:25:48.526Z,99461.06
2019-01-17T12:28:18.021Z,99449.90
2019-01-17T12:30:47.499Z,99452.08
2019-01-17T12:33:17.055Z,99462.56
2019-01-17T12:35:46.596Z,99459.02
2019-01-17T12:38:16.355Z,99459.67
2019-01-17T12:40:45.859Z,99443.84
2019-01-17T12:43:15.821Z,99436.60
2019-01-17T12:45:45.375Z,99441.59
2019-01-17T12:48:14.877Z,99437.55
2019-01-17T12:50:44.409Z,99442.73
2019-01-17T12:53:14.036Z,99433.58
2019-01-17T12:55:43.525Z,99429.87
2019-01-17T12:58:13.036Z,99422.77
2019-01-17T13:00:42.513Z,99422.41
2019-01-17T13:03:12.047Z,99427.80
2019-01-17T13:05:41.982Z,99418.13
2019-01-17T13:08:11.499Z,99431.72
2019-01-17T13:10:40.968Z,99427.02
2019-01-17T13:13:10.471Z,99419.65
2019-01-17T13:15:39.975Z,99418.53
2019-01-17T13:18:09.464Z,99410.69
2019-01-17T13:20:39.093Z,99406.58
2019-01-17T13:23:08.669Z,99400.97
2019-01-17T13:25:38.305Z,99397.39
2019-01-17T13:28:08.483Z,99396.24
2019-01-17T13:30:37.953Z,99398.16
2019-01-17T13:33:07.525Z,99393.56
2019-01-17T13:35:37.158Z,99399.65
2019-01-17T13:38:06.688Z,99404.35
2019-01-17T13:40:36.176Z,99392.73
2019-01-17T13:43:06.111Z,99391.95
2019-01-17T13:45:35.619Z,99395.97
2019-01-17T13:48:06.037Z,99390.93
2019-01-17T13:50:35.963Z,99390.76
2019-01-17T13:53:05.970Z,99383.59
2019-01-17T13:55:35.439Z,99379.47
2019-01-17T13:58:05.046Z,99381.41
2019-01-17T14:00:34.544Z,99394.95
2019-01-17T14:03:04.025Z,99386.89
2019-01-17T14:05:33.998Z,99392.94
2019-01-17T14:08:04.621Z,99399.21
2019-01-17T14:10:34.232Z,99439.42
2019-01-17T14:13:04.191Z,99465.14
2019-01-17T14:15:33.652Z,99466.09
2019-01-17T14:18:03.566Z,99465.41
2019-01-17T14:20:33.073Z,99475.46
2019-01-17T14:23:02.552Z,99472.24
2019-01-17T14:25:32.022Z,99470.04
2019-01-17T14:28:01.506Z,99471.89
2019-01-17T14:30:34.673Z,99476.47
2019-01-17T14:33:04.231Z,99489.76
2019-01-17T14:35:34.006Z,99477.52
2019-01-17T14:38:03.572Z,99476.64
2019-01-17T14:40:33.041Z,99479.62
2019-01-17T14:43:02.582Z,99485.20
2019-01-17T14:45:32.054Z,99486.89
2019-01-17T14:48:02.252Z,99490.27
2019-01-17T14:50:32.831Z,99482.89
2019-01-17T14:53:02.346Z,99492.64
2019-01-17T14:55:31.880Z,99498.34
2019-01-17T14:58:01.554Z,99505.74
2019-01-17T15:00:33.362Z,99507.59
2019-01-17T15:03:02.915Z,99502.04
2019-01-17T15:05:32.468Z,99506.46
2019-01-17T15:08:02.045Z,99509.00
2019-01-17T15:10:37.758Z,99515.08
2019-01-17T15:13:07.936Z,99522.27
2019-01-17T15:15:37.788Z,99520.95
2019-01-17T15:18:08.079Z,99513.56
2019-01-17T15:20:37.606Z,99521.02
2019-01-17T15:23:07.334Z,99524.98
2019-01-17T15:25:36.966Z,99521.31
2019-01-17T15:28:06.466Z,99527.87
2019-01-17T15:30:36.105Z,99534.22
2019-01-17T15:33:06.063Z,99536.95
2019-01-17T15:35:35.556Z,99537.63
2019-01-17T15:38:05.066Z,99544.48
2019-01-17T15:40:34.834Z,99537.06
2019-01-17T15:43:04.322Z,99545.61
2019-01-17T15:45:33.872Z,99544.59
2019-01-17T15:48:03.424Z,99545.65
2019-01-17T15:50:32.930Z,99548.70
2019-01-17T15:53:02.406Z,99551.02
2019-01-17T15:55:31.880Z,99556.89
2019-01-17T15:58:01.358Z,99563.53
2019-01-17T16:00:32.081Z,99558.87
2019-01-17T16:03:01.698Z,99564.45
2019-01-17T16:05:31.220Z,99569.46
2019-01-17T16:08:01.144Z,99575.54
2019-01-17T16:10:30.651Z,99575.89
2019-01-17T16:13:00.130Z,99573.00
2019-01-17T16:15:29.614Z,99579.88
2019-01-17T16:17:59.137Z,99579.69
2019-01-17T16:20:29.264Z,99585.25
2019-01-17T16:22:58.734Z,99582.20
2019-01-17T16:25:28.572Z,99593.83
2019-01-17T16:27:58.048Z,99596.00
2019-01-17T16:30:30.134Z,99595.06
2019-01-17T16:32:59.630Z,99588.65
2019-01-17T16:35:29.290Z,99591.34
2019-01-17T16:37:58.786Z,99598.38
2019-01-17T16:40:28.342Z,99607.25
2019-01-17T16:42:57.813Z,99602.89
2019-01-17T16:45:27.292Z,99608.91
2019-01-17T16:47:57.276Z,99619.55
2019-01-17T16:50:27.106Z,99622.64
2019-01-17T16:52:56.590Z,99620.77
2019-01-17T16:55:26.090Z,99626.50
2019-01-17T16:57:55.544Z,99631.44
2019-01-17T17:00:32.396Z,99635.79
2019-01-17T17:03:01.877Z,99633.89
2019-01-17T17:05:31.352Z,99631.29
2019-01-17T17:08:01.336Z,99636.63
2019-01-17T17:10:30.808Z,99641.16
2019-01-17T17:13:00.274Z,99651.68
2019-01-17T17:15:29.823Z,99648.44
2019-01-17T17:17:59.255Z,99655.95
2019-01-17T17:20:29.116Z,99654.27
2019-01-17T17:22:58.626Z,99657.67
2019-01-17T17:25:28.122Z,99658.08
2019-01-17T17:27:57.585Z,99662.83
2019-01-17T17:30:29.312Z,99664.22
2019-01-17T17:32:59.201Z,99668.91
2019-01-17T17:35:28.682Z,99668.98
2019-01-17T17:37:58.208Z,99669.92
2019-01-17T17:40:29.359Z,99671.49
2019-01-17T17:42:58.990Z,99668.55
2019-01-17T17:45:28.686Z,99669.19
2019-01-17T17:47:58.359Z,99679.41
2019-01-17T17:50:28.204Z,99680.52
2019-01-17T17:52:57.778Z,99685.33
2019-01-17T17:55:27.411Z,99688.63
2019-01-17T17:58:02.298Z,99696.03
2019-01-17T18:00:37.788Z,99690.22
2019-01-17T18:03:08.417Z,99701.67
2019-01-17T18:05:38.458Z,99704.56
2019-01-17T18:08:08.301Z,99709.02
2019-01-17T18:10:37.820Z,99707.52
2019-01-17T18:13:07.281Z,99706.30
2019-01-17T18:15:37.042Z,99707.75
2019-01-17T18:18:06.878Z,99713.83
2019-01-17T18:20:36.352Z,99722.23
2019-01-17T18:23:05.864Z,99718.61
2019-01-17T18:25:35.343Z,99725.27
2019-01-17T18:28:08.826Z,99726.95
2019-01-17T18:30:36.875Z,99728.63
2019-01-17T18:33:06.389Z,99743.64
2019-01-17T18:35:35.961Z,99736.37
2019-01-17T18:38:05.968Z,99731.89
2019-01-17T18:40:35.469Z,99736.79
2019-01-17T18:43:05.030Z,99741.97
2019-01-17T18:45:34.530Z,99742.58
2019-01-17T18:48:04.099Z,99742.77
2019-01-17T18:50:36.295Z,99749.02
2019-01-17T18:53:06.626Z,99753.76
2019-01-17T18:55:36.103Z,99755.38
2019-01-17T18:58:06.053Z,99758.71
2019-01-17T19:00:35.551Z,99769.60
2019-01-17T19:03:05.085Z,99785.16
2019-01-17T19:05:34.668Z,99789.72
2019-01-17T19:08:04.252Z,99787.30
2019-01-17T19:10:33.799Z,99794.69
2019-01-17T19:13:03.287Z,99803.72
2019-01-17T19:15:33.583Z,99800.34
2019-01-17T19:18:03.059Z,99812.56
2019-01-17T19:20:32.697Z,99826.02
2019-01-17T19:23:02.213Z,99814.41
2019-01-17T19:25:31.723Z,99833.91
2019-01-17T19:28:01.191Z,99836.15
2019-01-17T19:30:31.598Z,99838.27
2019-01-17T19:33:01.171Z,99851.38
2019-01-17T19:35:30.673Z,99857.09
2019-01-17T19:38:00.260Z,99854.42
2019-01-17T19:40:30.716Z,99869.95
2019-01-17T19:43:00.328Z,99868.55
2019-01-17T19:45:29.846Z,99868.69
2019-01-17T19:47:59.314Z,99868.86
2019-01-17T19:50:32.419Z,99868.45
2019-01-17T19:53:02.204Z,99886.83
2019-01-17T19:55:31.672Z,99885.00
2019-01-17T19:58:01.169Z,99892.58
2019-01-17T20:00:30.740Z,99891.84
2019-01-17T20:03:00.195Z,99890.80
2019-01-17T20:05:33.083Z,99901.98
2019-01-17T20:08:02.733Z,99897.82
2019-01-17T20:10:34.560Z,99902.91
2019-01-17T20:13:04.503Z,99901.26
2019-01-17T20:15:34.280Z,99909.87
2019-01-17T20:18:03.765Z,99910.58
2019-01-17T20:20:33.858Z,99911.92
2019-01-17T20:23:03.729Z,99916.06
2019-01-17T20:25:33.198Z,99918.79
2019-01-17T20:28:02.718Z,99928.93
2019-01-17T20:30:33.988Z,99938.49
2019-01-17T20:33:07.513Z,99935.70
2019-01-17T20:35:37.055Z,99947.59
2019-01-17T20:38:07.211Z,99958.50
2019-01-17T20:40:36.701Z,99967.03
2019-01-17T20:43:06.249Z,99972.25
2019-01-17T20:45:35.742Z,99968.57
2019-01-17T20:48:05.369Z,99975.86
2019-01-17T20:50:34.870Z,99977.39
2019-01-17T20:53:04.410Z,99987.05
2019-01-17T20:55:33.951Z,99994.13
2019-01-17T20:58:03.518Z,99993.56
2019-01-17T21:00:47.212Z,100000.45
2019-01-17T21:03:18.847Z,100014.09
2019-01-17T21:05:48.796Z,100021.27
2019-01-17T21:08:18.426Z,100025.99
2019-01-17T21:10:47.885Z,100033.75
2019-01-17T21:13:17.381Z,100038.58
2019-01-17T21:15:46.912Z,100034.42
2019-01-17T21:18:16.390Z,100040.49
2019-01-17T21:20:45.994Z,100041.16
2019-01-17T21:23:16.087Z,100050.83
2019-01-17T21:25:45.621Z,100050.64
2019-01-17T21:28:15.142Z,100074.87
2019-01-17T21:30:44.761Z,100101.66
2019-01-17T21:33:14.270Z,100104.05
2019-01-17T21:35:43.744Z,100117.03
2019-01-17T21:38:14.057Z,100122.39
2019-01-17T21:40:43.602Z,100141.08
2019-01-17T21:43:13.107Z,100155.55
2019-01-17T21:45:43.023Z,100168.33
2019-01-17T21:48:12.552Z,100168.33
2019-01-17T21:50:42.091Z,100182.16
2019-01-17T21:53:11.672Z,100195.71
2019-01-17T21:55:41.154Z,100214.05
2019-01-17T21:58:10.749Z,100220.31
2019-01-17T22:00:41.892Z,100229.05
2019-01-17T22:03:11.429Z,100238.60
2019-01-17T22:05:40.924Z,100245.73
2019-01-17T22:08:10.879Z,100255.34
2019-01-17T22:10:40.418Z,100263.38
2019-01-17T22:13:09.888Z,100274.56
2019-01-17T22:15:39.848Z,100288.53
2019-01-17T22:18:09.471Z,100297.24
2019-01-17T22:20:38.942Z,100306.98
2019-01-17T22:23:09.121Z,100324.86
2019-01-17T22:25:38.600Z,100333.45
2019-01-17T22:28:08.079Z,100342.59
2019-01-17T22:30:37.671Z,100349.25
2019-01-17T22:33:07.143Z,100360.45
2019-01-17T22:35:36.748Z,100362.13
2019-01-17T22:38:06.267Z,100367.67
2019-01-17T22:40:35.808Z,100370.81
2019-01-17T22:43:05.555Z,100377.70
2019-01-17T22:45:35.122Z,100385.08
2019-01-17T22:48:04.643Z,100394.75
2019-01-17T22:50:34.123Z,100411.61
2019-01-17T22:53:03.749Z,100406.02
2019-01-17T22:55:33.362Z,100409.94
2019-01-17T22:58:02.850Z,100414.88
2019-01-17T23:00:49.657Z,100429.91
2019-01-17T23:03:26.108Z,100434.97
2019-01-17T23:05:55.835Z,100447.16
2019-01-17T23:08:25.921Z,100449.66
2019-01-17T23:10:55.357Z,100454.76
2019-01-17T23:13:24.947Z,100458.39
2019-01-17T23:15:54.438Z,100464.60
2019-01-17T23:18:23.921Z,100481.03
2019-01-17T23:20:53.419Z,100479.03
2019-01-17T23:23:22.904Z,100483.30
2019-01-17T23:25:52.380Z,100491.16
2019-01-17T23:28:21.913Z,100499.11
2019-01-17T23:30:51.408Z,100507.30
2019-01-17T23:33:21.236Z,100510.73
2019-01-17T23:35:50.861Z,100513.25
2019-01-17T23:38:20.352Z,100522.31
2019-01-17T23:40:49.827Z,100527.96
2019-01-17T23:43:19.551Z,100532.17
2019-01-17T23:45:49.020Z,100544.28
2019-01-17T23:48:18.531Z,100542.44
2019-01-17T23:50:48.054Z,100554.38
2019-01-17T23:53:17.517Z,100550.84
2019-01-17T23:55:47.002Z,100557.77
2019-01-17T23:58:16.606Z,100558.13
